createdAt,value
2023-03-25T00:00:59.559Z,9.68
2023-03-25T00:03:29.535Z,7.45
2023-03-25T00:05:59.285Z,5.53
2023-03-25T00:08:28.286Z,10.02
2023-03-25T00:11:00.427Z,6.75
2023-03-25T00:13:31.834Z,7.05
2023-03-25T00:16:01.503Z,6.47
2023-03-25T00:18:33.698Z,6.85
2023-03-25T00:21:05.634Z,9.15
2023-03-25T00:23:34.110Z,8.20
2023-03-25T00:26:03.157Z,8.05
2023-03-25T00:28:33.717Z,7.80
2023-03-25T00:31:03.185Z,9.68
2023-03-25T00:33:31.748Z,9.25
2023-03-25T00:36:00.769Z,8.63
2023-03-25T00:38:35.452Z,10.82
2023-03-25T00:41:14.931Z,11.80
2023-03-25T00:43:43.081Z,6.72
2023-03-25T00:46:11.985Z,8.80
2023-03-25T00:48:41.471Z,8.75
2023-03-25T00:51:10.401Z,8.93
2023-03-25T00:53:40.287Z,12.10
2023-03-25T00:56:09.443Z,8.18
2023-03-25T00:58:37.890Z,7.68
2023-03-25T01:01:13.437Z,11.77
2023-03-25T01:03:43.951Z,9.65
2023-03-25T01:06:13.282Z,6.70
2023-03-25T01:08:45.260Z,9.07
2023-03-25T01:11:20.076Z,10.15
2023-03-25T01:13:48.425Z,12.45
2023-03-25T01:16:16.887Z,9.45
2023-03-25T01:18:45.074Z,13.80
2023-03-25T01:21:13.297Z,11.32
2023-03-25T01:23:42.975Z,11.48
2023-03-25T01:26:13.126Z,10.48
2023-03-25T01:28:42.106Z,12.25
2023-03-25T01:31:12.620Z,12.40
2023-03-25T01:33:40.969Z,12.38
2023-03-25T01:36:13.049Z,11.57
2023-03-25T01:38:43.476Z,11.38
2023-03-25T01:41:12.377Z,14.77
2023-03-25T01:43:41.267Z,12.13
2023-03-25T01:46:15.206Z,15.75
2023-03-25T01:48:46.923Z,13.05
2023-03-25T01:51:19.459Z,15.98
2023-03-25T01:53:50.014Z,10.20
2023-03-25T01:56:23.878Z,12.63
2023-03-25T01:58:54.124Z,15.05
2023-03-25T02:01:22.871Z,14.05
2023-03-25T02:03:53.223Z,14.10
2023-03-25T02:06:28.714Z,12.15
2023-03-25T02:09:00.118Z,12.45
2023-03-25T02:11:30.259Z,13.15
2023-03-25T02:14:01.293Z,9.63
2023-03-25T02:16:36.983Z,14.48
2023-03-25T02:19:41.122Z,11.82
2023-03-25T02:22:54.230Z,12.05
2023-03-25T02:25:46.330Z,11.35
2023-03-25T02:28:26.260Z,11.50
2023-03-25T02:31:15.935Z,10.85
2023-03-25T02:34:20.262Z,15.45
2023-03-25T02:37:21.796Z,13.93
2023-03-25T02:39:57.312Z,13.80
2023-03-25T02:42:32.089Z,12.25
2023-03-25T02:45:03.878Z,10.32
2023-03-25T02:47:37.485Z,12.20
2023-03-25T02:52:40.292Z,12.80
2023-03-25T02:55:15.350Z,11.48
2023-03-25T02:57:47.632Z,11.75
2023-03-25T03:00:20.607Z,11.55
2023-03-25T03:02:59.416Z,11.45
2023-03-25T03:05:30.382Z,16.27
2023-03-25T03:08:19.067Z,17.08
2023-03-25T03:10:57.204Z,13.30
2023-03-25T03:13:35.268Z,15.20
2023-03-25T03:16:12.069Z,13.55
2023-03-25T03:18:48.463Z,14.65
2023-03-25T03:21:23.518Z,16.60
2023-03-25T03:23:58.680Z,17.35
2023-03-25T03:26:38.268Z,19.42
2023-03-25T03:29:14.208Z,14.38
2023-03-25T03:31:48.655Z,16.40
2023-03-25T03:34:43.133Z,19.80
2023-03-25T03:37:15.084Z,15.73
2023-03-25T03:39:44.807Z,15.95
2023-03-25T03:42:21.575Z,16.27
2023-03-25T03:44:54.016Z,16.63
2023-03-25T03:47:26.390Z,14.30
2023-03-25T03:49:59.181Z,14.32
2023-03-25T03:52:33.626Z,10.63
2023-03-25T03:55:06.668Z,15.23
2023-03-25T03:57:42.972Z,10.43
2023-03-25T04:00:17.177Z,13.57
2023-03-25T04:02:50.821Z,12.13
2023-03-25T04:05:23.427Z,9.07
2023-03-25T04:07:57.161Z,10.07
2023-03-25T04:10:34.934Z,13.73
2023-03-25T04:13:09.737Z,12.43
2023-03-25T04:15:38.469Z,13.95
2023-03-25T04:18:06.802Z,14.65
2023-03-25T04:20:36.930Z,12.75
2023-03-25T04:23:06.123Z,13.70
2023-03-25T04:25:34.260Z,12.57
2023-03-25T04:28:02.668Z,17.05
2023-03-25T04:30:32.190Z,14.27
2023-03-25T04:33:01.272Z,15.55
2023-03-25T04:35:33.114Z,15.48
2023-03-25T04:38:01.844Z,19.52
2023-03-25T04:40:30.143Z,18.33
2023-03-25T04:42:58.832Z,14.95
2023-03-25T04:45:28.815Z,14.85
2023-03-25T04:47:58.637Z,12.82
2023-03-25T04:50:28.903Z,17.90
2023-03-25T04:53:00.417Z,14.20
2023-03-25T04:55:30.323Z,11.82
2023-03-25T04:57:58.477Z,15.45
2023-03-25T05:00:27.197Z,15.57
2023-03-25T05:02:57.594Z,14.00
2023-03-25T05:05:27.316Z,15.48
2023-03-25T05:07:58.454Z,15.88
2023-03-25T05:10:29.744Z,13.48
2023-03-25T05:13:00.622Z,13.68
2023-03-25T05:15:30.532Z,10.57
2023-03-25T05:17:59.187Z,14.00
2023-03-25T05:20:29.511Z,16.90
2023-03-25T05:22:57.723Z,16.73
2023-03-25T05:25:25.977Z,12.45
2023-03-25T05:27:54.698Z,18.42
2023-03-25T05:30:23.001Z,18.05
2023-03-25T05:32:56.453Z,14.38
2023-03-25T05:35:26.940Z,18.15
2023-03-25T05:37:57.688Z,13.98
2023-03-25T05:40:26.387Z,13.73
2023-03-25T05:42:56.330Z,17.00
2023-03-25T05:45:25.179Z,14.95
2023-03-25T05:47:54.257Z,14.05
2023-03-25T05:50:23.309Z,17.25
2023-03-25T05:52:52.143Z,14.40
2023-03-25T05:55:23.647Z,11.52
2023-03-25T05:57:52.135Z,19.20
2023-03-25T06:00:23.565Z,12.85
2023-03-25T06:02:52.747Z,14.15
2023-03-25T06:05:23.957Z,12.30
2023-03-25T06:07:56.369Z,19.20
2023-03-25T06:10:26.522Z,15.20
2023-03-25T06:12:55.167Z,16.85
2023-03-25T06:15:29.411Z,15.18
2023-03-25T06:17:58.805Z,17.45
2023-03-25T06:20:27.661Z,20.52
2023-03-25T06:22:56.683Z,21.42
2023-03-25T06:25:26.851Z,20.95
2023-03-25T06:27:56.187Z,16.40
2023-03-25T06:30:24.635Z,17.52
2023-03-25T06:32:55.851Z,22.48
2023-03-25T06:35:24.197Z,22.17
2023-03-25T06:37:52.505Z,17.95
2023-03-25T06:40:22.443Z,26.67
2023-03-25T06:42:52.040Z,25.52
2023-03-25T06:45:20.613Z,23.52
2023-03-25T06:47:49.079Z,28.80
2023-03-25T06:50:17.698Z,27.65
2023-03-25T06:52:46.259Z,22.20
2023-03-25T06:55:14.612Z,22.25
2023-03-25T06:57:43.451Z,25.77
2023-03-25T07:00:14.258Z,24.92
2023-03-25T07:02:42.637Z,24.73
2023-03-25T07:05:11.206Z,24.27
2023-03-25T07:07:39.637Z,24.98
2023-03-25T07:10:08.806Z,22.33
2023-03-25T07:12:37.361Z,25.95
2023-03-25T07:15:06.455Z,21.50
2023-03-25T07:17:36.429Z,23.75
2023-03-25T07:20:05.682Z,22.40
2023-03-25T07:22:34.168Z,22.25
2023-03-25T07:25:02.400Z,26.13
2023-03-25T07:27:30.590Z,25.73
2023-03-25T07:29:58.979Z,24.40
2023-03-25T07:32:27.257Z,20.63
2023-03-25T07:34:56.862Z,23.70
2023-03-25T07:37:25.187Z,21.05
2023-03-25T07:39:53.459Z,27.55
2023-03-25T07:42:21.636Z,28.73
2023-03-25T07:44:50.081Z,20.65
2023-03-25T07:47:18.645Z,20.52
2023-03-25T07:49:47.804Z,23.67
2023-03-25T07:52:17.562Z,24.83
2023-03-25T07:54:46.085Z,22.88
2023-03-25T07:57:14.314Z,27.70
2023-03-25T07:59:42.536Z,26.25
2023-03-25T08:02:13.555Z,27.58
2023-03-25T08:04:41.773Z,29.00
2023-03-25T08:07:10.051Z,26.13
2023-03-25T08:09:39.776Z,26.63
2023-03-25T08:12:09.586Z,25.05
2023-03-25T08:14:37.950Z,22.38
2023-03-25T08:17:07.244Z,25.05
2023-03-25T08:19:37.000Z,20.55
2023-03-25T08:22:05.500Z,19.42
2023-03-25T08:24:33.986Z,17.58
2023-03-25T08:27:14.784Z,23.02
2023-03-25T08:29:45.045Z,21.40
2023-03-25T08:32:13.239Z,19.20
2023-03-25T08:34:41.472Z,21.08
2023-03-25T08:37:10.244Z,24.83
2023-03-25T08:39:40.063Z,23.80
2023-03-25T08:42:10.507Z,21.85
2023-03-25T08:44:38.778Z,22.90
2023-03-25T08:47:07.349Z,22.70
2023-03-25T08:49:35.715Z,25.70
2023-03-25T08:52:08.681Z,22.23
2023-03-25T08:54:37.148Z,24.88
2023-03-25T08:57:06.022Z,24.45
2023-03-25T08:59:35.802Z,26.67
2023-03-25T09:02:04.293Z,21.83
2023-03-25T09:04:32.765Z,24.17
2023-03-25T09:07:12.032Z,21.33
2023-03-25T09:09:40.974Z,26.05
2023-03-25T09:12:09.927Z,21.85
2023-03-25T09:14:39.796Z,26.33
2023-03-25T09:17:10.284Z,26.88
2023-03-25T09:19:38.882Z,22.13
2023-03-25T09:22:08.338Z,25.48
2023-03-25T09:24:36.804Z,24.27
2023-03-25T09:27:05.301Z,21.25
2023-03-25T09:29:33.706Z,23.23
2023-03-25T09:32:03.986Z,30.80
2023-03-25T09:34:32.325Z,35.00
2023-03-25T09:37:01.192Z,28.23
2023-03-25T09:39:29.907Z,25.75
2023-03-25T09:42:18.328Z,24.25
2023-03-25T09:44:56.843Z,27.25
2023-03-25T09:47:27.806Z,20.17
2023-03-25T09:50:01.334Z,24.98
2023-03-25T09:55:03.824Z,17.30
2023-03-25T09:57:49.317Z,19.67
2023-03-25T10:00:24.233Z,27.58
2023-03-25T10:03:00.755Z,24.35
2023-03-25T10:05:50.075Z,21.02
2023-03-25T10:08:30.697Z,17.17
2023-03-25T10:11:06.126Z,17.52
2023-03-25T10:13:44.765Z,22.38
2023-03-25T10:16:27.716Z,19.75
2023-03-25T10:19:09.892Z,16.88
2023-03-25T10:21:45.652Z,19.67
2023-03-25T10:24:19.970Z,21.30
2023-03-25T10:26:53.299Z,22.60
2023-03-25T10:29:27.010Z,17.85
2023-03-25T10:34:35.093Z,15.20
2023-03-25T10:37:08.247Z,17.67
2023-03-25T10:39:40.101Z,17.70
2023-03-25T10:42:20.481Z,11.57
2023-03-25T10:44:51.148Z,17.73
2023-03-25T10:47:22.059Z,17.20
2023-03-25T10:49:53.067Z,18.05
2023-03-25T10:52:21.751Z,16.25
2023-03-25T10:54:54.968Z,16.80
2023-03-25T10:57:28.107Z,20.00
2023-03-25T11:00:12.911Z,17.60
2023-03-25T11:02:41.592Z,18.70
2023-03-25T11:05:12.977Z,14.77
2023-03-25T11:07:44.989Z,17.80
2023-03-25T11:10:18.816Z,22.65
2023-03-25T11:12:48.565Z,18.45
2023-03-25T11:15:19.680Z,19.90
2023-03-25T11:17:49.449Z,24.33
2023-03-25T11:20:27.293Z,21.77
2023-03-25T11:22:58.912Z,21.23
2023-03-25T11:25:31.690Z,18.60
2023-03-25T11:28:03.253Z,16.97
2023-03-25T11:30:31.535Z,19.00
2023-03-25T11:33:04.125Z,15.93
2023-03-25T11:35:38.080Z,18.42
2023-03-25T11:38:16.934Z,21.25
2023-03-25T11:40:54.240Z,18.90
2023-03-25T11:43:24.801Z,19.92
2023-03-25T11:45:53.344Z,16.20
2023-03-25T11:48:24.462Z,23.25
2023-03-25T11:50:59.767Z,18.10
2023-03-25T11:53:31.229Z,14.00
2023-03-25T11:56:04.548Z,14.38
2023-03-25T11:58:37.144Z,14.57
2023-03-25T12:01:07.419Z,12.70
2023-03-25T12:03:36.982Z,14.38
2023-03-25T12:06:09.073Z,14.57
2023-03-25T12:08:45.118Z,17.63
2023-03-25T12:11:17.902Z,13.32
2023-03-25T12:13:56.309Z,16.80
2023-03-25T12:16:32.713Z,18.25
2023-03-25T12:19:16.402Z,16.35
2023-03-25T12:22:05.030Z,18.00
2023-03-25T12:24:54.506Z,18.02
2023-03-25T12:27:37.018Z,23.27
2023-03-25T12:30:17.166Z,19.98
2023-03-25T12:32:55.175Z,21.05
2023-03-25T12:35:32.305Z,18.55
2023-03-25T12:38:18.370Z,14.98
2023-03-25T12:40:56.909Z,15.30
2023-03-25T12:43:36.157Z,17.60
2023-03-25T12:46:17.141Z,19.23
2023-03-25T12:49:03.298Z,18.45
2023-03-25T12:51:41.525Z,18.25
2023-03-25T12:54:25.958Z,24.35
2023-03-25T12:57:03.778Z,19.65
2023-03-25T12:59:49.978Z,18.83
2023-03-25T13:02:32.895Z,19.58
2023-03-25T13:05:12.366Z,14.18
2023-03-25T13:07:45.346Z,14.98
2023-03-25T13:10:20.158Z,18.83
2023-03-25T13:12:52.148Z,18.35
2023-03-25T13:15:27.183Z,17.67
2023-03-25T13:17:58.862Z,14.60
2023-03-25T13:20:31.449Z,15.05
2023-03-25T13:23:04.720Z,17.58
2023-03-25T13:25:43.599Z,13.43
2023-03-25T13:28:14.513Z,15.63
2023-03-25T13:30:46.158Z,17.35
2023-03-25T13:33:17.439Z,14.93
2023-03-25T13:35:49.405Z,17.60
2023-03-25T13:38:25.811Z,17.90
2023-03-25T13:41:06.349Z,17.52
2023-03-25T13:43:39.565Z,13.75
2023-03-25T13:46:10.701Z,15.35
2023-03-25T13:48:43.736Z,17.08
2023-03-25T13:51:12.277Z,15.38
2023-03-25T13:53:46.548Z,15.35
2023-03-25T13:56:48.250Z,12.73
2023-03-25T13:59:40.263Z,16.20
2023-03-25T14:02:43.287Z,12.85
2023-03-25T14:05:52.676Z,14.05
2023-03-25T14:08:52.613Z,14.85
2023-03-25T14:11:24.966Z,18.92
2023-03-25T14:13:55.978Z,16.90
2023-03-25T14:16:29.816Z,14.07
2023-03-25T14:19:03.121Z,17.30
2023-03-25T14:21:41.734Z,16.92
2023-03-25T14:24:15.107Z,19.45
2023-03-25T14:26:47.622Z,14.85
2023-03-25T14:29:26.640Z,15.23
2023-03-25T14:32:04.716Z,20.00
2023-03-25T14:34:33.194Z,18.52
2023-03-25T14:37:30.838Z,9.27
2023-03-25T14:40:02.829Z,12.60
2023-03-25T14:42:42.449Z,12.32
2023-03-25T14:45:52.186Z,17.33
2023-03-25T14:48:32.390Z,17.85
2023-03-25T14:51:23.093Z,16.80
2023-03-25T14:53:57.926Z,15.10
2023-03-25T14:56:34.333Z,18.05
2023-03-25T14:59:10.498Z,16.58
2023-03-25T15:01:41.496Z,16.55
2023-03-25T15:04:15.630Z,16.15
2023-03-25T15:06:44.584Z,21.88
2023-03-25T15:09:15.724Z,20.38
2023-03-25T15:11:46.797Z,17.73
2023-03-25T15:14:19.586Z,18.65
2023-03-25T15:17:00.539Z,14.27
2023-03-25T15:19:30.582Z,17.50
2023-03-25T15:22:23.118Z,17.83
2023-03-25T15:24:56.551Z,17.40
2023-03-25T15:27:48.456Z,17.30
2023-03-25T15:30:34.901Z,16.52
2023-03-25T15:33:18.076Z,18.67
2023-03-25T15:36:15.411Z,24.88
2023-03-25T15:38:56.806Z,22.02
2023-03-25T15:41:52.608Z,16.75
2023-03-25T15:44:45.914Z,20.15
2023-03-25T15:47:36.166Z,16.40
2023-03-25T15:50:31.717Z,19.35
2023-03-25T15:53:41.793Z,18.38
2023-03-25T15:56:14.893Z,21.38
2023-03-25T15:58:52.314Z,19.27
2023-03-25T16:01:25.896Z,19.25
2023-03-25T16:06:28.401Z,23.73
2023-03-25T16:08:59.655Z,18.05
2023-03-25T16:11:30.072Z,27.65
2023-03-25T16:14:08.497Z,19.17
2023-03-25T16:16:40.673Z,23.30
2023-03-25T16:19:13.070Z,15.18
2023-03-25T16:21:41.840Z,25.20
2023-03-25T16:24:13.866Z,22.25
2023-03-25T16:26:46.250Z,21.98
2023-03-25T16:29:20.544Z,20.83
2023-03-25T16:31:58.089Z,21.17
2023-03-25T16:34:26.642Z,20.67
2023-03-25T16:36:56.181Z,22.38
2023-03-25T16:39:26.331Z,21.02
2023-03-25T16:42:06.354Z,28.80
2023-03-25T16:44:35.721Z,20.20
2023-03-25T16:47:04.232Z,22.75
2023-03-25T16:49:34.323Z,21.70
2023-03-25T16:52:04.673Z,21.63
2023-03-25T16:54:38.684Z,22.20
2023-03-25T16:57:10.174Z,26.73
2023-03-25T16:59:39.799Z,23.95
2023-03-25T17:02:26.370Z,27.35
2023-03-25T17:04:58.645Z,24.38
2023-03-25T17:07:29.758Z,24.20
2023-03-25T17:10:00.753Z,22.10
2023-03-25T17:12:30.928Z,23.15
2023-03-25T17:15:06.961Z,21.73
2023-03-25T17:17:41.638Z,23.20
2023-03-25T17:20:19.118Z,23.92
2023-03-25T17:23:00.768Z,24.08
2023-03-25T17:25:32.381Z,25.88
2023-03-25T17:28:08.436Z,22.88
2023-03-25T17:30:44.568Z,22.60
2023-03-25T17:33:16.869Z,23.13
2023-03-25T17:35:47.025Z,22.20
2023-03-25T17:38:25.513Z,23.27
2023-03-25T17:41:03.260Z,31.08
2023-03-25T17:43:35.200Z,28.30
2023-03-25T17:46:05.926Z,25.48
2023-03-25T17:48:34.324Z,25.02
2023-03-25T17:51:02.801Z,26.02
2023-03-25T17:53:31.457Z,26.13
2023-03-25T17:56:03.504Z,23.52
2023-03-25T17:58:33.838Z,29.80
2023-03-25T18:01:02.701Z,28.17
2023-03-25T18:03:33.257Z,27.33
2023-03-25T18:06:01.547Z,35.53
2023-03-25T18:08:30.421Z,21.55
2023-03-25T18:11:00.035Z,25.38
2023-03-25T18:13:28.450Z,37.95
2023-03-25T18:15:58.067Z,30.02
2023-03-25T18:18:27.999Z,22.58
2023-03-25T18:20:57.086Z,28.38
2023-03-25T18:23:25.423Z,30.27
2023-03-25T18:25:53.820Z,30.25
2023-03-25T18:28:21.963Z,30.48
2023-03-25T18:30:54.663Z,24.75
2023-03-25T18:33:24.810Z,29.52
2023-03-25T18:35:53.793Z,33.63
2023-03-25T18:38:24.779Z,24.05
2023-03-25T18:40:54.228Z,30.90
2023-03-25T18:43:23.191Z,29.40
2023-03-25T18:45:52.085Z,33.28
2023-03-25T18:48:23.278Z,26.33
2023-03-25T18:50:55.336Z,27.60
2023-03-25T18:53:25.277Z,35.40
2023-03-25T18:55:55.967Z,35.00
2023-03-25T18:58:26.133Z,30.00
2023-03-25T19:00:55.344Z,29.02
2023-03-25T19:03:31.775Z,31.55
2023-03-25T19:06:01.058Z,36.28
2023-03-25T19:08:29.472Z,28.35
2023-03-25T19:11:08.075Z,30.08
2023-03-25T19:13:45.124Z,35.05
2023-03-25T19:16:13.451Z,27.73
2023-03-25T19:18:43.042Z,27.15
2023-03-25T19:21:15.245Z,27.05
2023-03-25T19:23:43.462Z,30.00
2023-03-25T19:26:12.257Z,28.42
2023-03-25T19:28:41.163Z,30.58
2023-03-25T19:31:09.798Z,35.05
2023-03-25T19:33:38.206Z,40.05
2023-03-25T19:36:23.418Z,37.60
2023-03-25T19:38:53.255Z,33.33
2023-03-25T19:41:21.475Z,30.48
2023-03-25T19:43:49.812Z,37.28
2023-03-25T19:46:19.322Z,30.88
2023-03-25T19:48:47.628Z,33.88
2023-03-25T19:51:17.601Z,33.65
2023-03-25T19:53:46.038Z,30.58
2023-03-25T19:56:14.227Z,32.25
2023-03-25T19:58:42.816Z,44.42
2023-03-25T20:01:14.515Z,44.70
2023-03-25T20:03:43.144Z,29.77
2023-03-25T20:06:12.007Z,29.35
2023-03-25T20:08:41.920Z,32.65
2023-03-25T20:11:12.074Z,32.35
2023-03-25T20:13:40.565Z,30.02
2023-03-25T20:16:09.944Z,31.98
2023-03-25T20:18:38.825Z,30.13
2023-03-25T20:21:08.864Z,29.23
2023-03-25T20:23:37.542Z,36.35
2023-03-25T20:26:07.974Z,31.75
2023-03-25T20:28:37.312Z,34.08
2023-03-25T20:31:18.472Z,31.55
2023-03-25T20:33:47.639Z,32.10
2023-03-25T20:36:16.059Z,39.90
2023-03-25T20:38:56.078Z,31.92
2023-03-25T20:41:27.261Z,28.40
2023-03-25T20:43:55.424Z,34.80
2023-03-25T20:46:28.606Z,35.40
2023-03-25T20:48:57.269Z,28.05
2023-03-25T20:51:26.463Z,30.58
2023-03-25T20:53:55.032Z,30.10
2023-03-25T20:56:23.230Z,30.30
2023-03-25T20:58:53.248Z,36.92
2023-03-25T21:01:22.339Z,34.80
2023-03-25T21:03:51.783Z,34.97
2023-03-25T21:06:23.746Z,115.10
2023-03-25T21:08:54.910Z,41.53
2023-03-25T21:11:23.344Z,37.13
2023-03-25T21:13:53.005Z,33.58
2023-03-25T21:16:21.557Z,26.27
2023-03-25T21:18:50.393Z,28.88
2023-03-25T21:21:19.924Z,30.77
2023-03-25T21:23:49.545Z,32.88
2023-03-25T21:26:17.764Z,34.10
2023-03-25T21:28:46.002Z,34.88
2023-03-25T21:31:21.181Z,34.13
2023-03-25T21:33:51.321Z,30.20
2023-03-25T21:36:22.125Z,26.77
2023-03-25T21:38:52.745Z,30.98
2023-03-25T21:41:21.111Z,33.90
2023-03-25T21:43:49.380Z,28.00
2023-03-25T21:46:19.699Z,30.45
2023-03-25T21:48:48.589Z,30.38
2023-03-25T21:51:16.763Z,33.10
2023-03-25T21:53:46.629Z,28.00
2023-03-25T21:56:17.486Z,39.15
2023-03-25T21:58:47.028Z,43.28
2023-03-25T22:01:17.882Z,27.90
2023-03-25T22:03:48.072Z,27.77
2023-03-25T22:06:19.247Z,32.20
2023-03-25T22:08:47.443Z,33.10
2023-03-25T22:11:18.050Z,34.80
2023-03-25T22:13:46.970Z,35.25
2023-03-25T22:16:16.745Z,35.78
2023-03-25T22:18:45.570Z,33.53
2023-03-25T22:21:17.806Z,31.80
2023-03-25T22:23:47.830Z,30.13
2023-03-25T22:26:17.557Z,28.65
2023-03-25T22:28:47.713Z,29.58
2023-03-25T22:31:18.590Z,32.78
2023-03-25T22:33:49.246Z,28.65
2023-03-25T22:36:19.030Z,26.02
2023-03-25T22:38:51.544Z,30.73
2023-03-25T22:41:20.836Z,29.05
2023-03-25T22:43:49.616Z,24.63
2023-03-25T22:46:18.425Z,27.65
2023-03-25T22:48:47.083Z,28.70
2023-03-25T22:51:17.324Z,25.08
2023-03-25T22:53:47.824Z,24.15
2023-03-25T22:56:16.221Z,27.05
2023-03-25T22:58:44.448Z,25.60
2023-03-25T23:01:20.531Z,32.15
2023-03-25T23:03:48.983Z,39.03
2023-03-25T23:06:17.257Z,20.55
2023-03-25T23:08:47.539Z,24.00
2023-03-25T23:11:18.122Z,23.05
2023-03-25T23:13:48.967Z,26.10
2023-03-25T23:16:19.954Z,26.27
2023-03-25T23:18:48.627Z,26.02
2023-03-25T23:21:20.864Z,21.27
2023-03-25T23:23:52.829Z,25.30
2023-03-25T23:26:24.924Z,20.40
2023-03-25T23:28:54.257Z,23.48
2023-03-25T23:31:28.700Z,22.05
2023-03-25T23:33:59.194Z,22.15
2023-03-25T23:36:28.681Z,24.50
2023-03-25T23:38:59.157Z,30.40
2023-03-25T23:41:29.222Z,21.88
2023-03-25T23:43:57.486Z,25.30
2023-03-25T23:46:27.455Z,25.65
2023-03-25T23:49:01.964Z,29.00
2023-03-25T23:51:33.314Z,25.10
2023-03-25T23:54:03.225Z,23.00
2023-03-25T23:56:31.711Z,26.92
2023-03-25T23:59:00.897Z,21.52
